Terminal Aerodrome Forecast
Issued by NWS

Home | Current Version | Previous Version | Graphics & Text | Print | Product List | Glossary On
Versions: 1 2 3 4 5 6 7 8 9 10 11 12 13 14 15 16
000
FTUS43 KGRB 282339
TAFMTW
TAF
KMTW 282339Z 2900/2924 16010KT P6SM SCT060 SCT120
     FM290200 15006KT P6SM BKN150
     FM291100 15008KT P6SM VCSH SCT050 OVC080
      TEMPO 2912/2916 6SM -SHRA BKN035
     FM291600 19014G24KT P6SM VCSH BKN035 BKN080
      TEMPO 2923/2924 4SM TSRA BKN025CB=

USA.gov is the U.S. government's official web portal to all federal, state and local government web resources and services.